Time;durP1;ratioP1;P1;durP2;ratioP2;P2;SDS_P1;SDS_P2;PMS_P1;PMS_P2;Temp;Humidity;BMP_temperature;BMP_pressure;BME280_temperature;BME280_humidity;BME280_pressure;Samples;Min_cycle;Max_cycle;Signal;HPM_P1;HPM_P2
2022/12/08 00:01:05;;;;;;;;;;;3.30;99.90;;;;;;4977713;28;19916;-72
2022/12/08 00:03:30;;;;;;;;;;;3.20;99.90;;;;;;4977053;28;19931;-72
2022/12/08 00:11:25;;;;;;;;;;;3.10;99.90;;;;;;4978573;28;20528;-73
2022/12/08 00:13:51;;;;;;;;;;;3.00;99.90;;;;;;4979572;28;20891;-72
2022/12/08 00:16:16;;;;;;;;;;;3.00;99.90;;;;;;4978266;28;19915;-72
2022/12/08 00:18:42;;;;;;;;;;;3.00;99.90;;;;;;4977797;27;19915;-72
2022/12/08 00:21:07;;;;;;;;;;;2.90;99.90;;;;;;4979168;28;20777;-72
2022/12/08 00:23:33;;;;;;;;;;;3.00;99.90;;;;;;4977697;28;19922;-73
2022/12/08 00:26:05;;;;;;;;;;;2.90;99.90;;;;;;4981215;28;19923;-72
2022/12/08 00:28:31;;;;;;;;;;;2.90;99.90;;;;;;4978622;28;19944;-72
2022/12/08 00:30:57;;;;;;;;;;;2.90;99.90;;;;;;4980095;28;19977;-72
2022/12/08 00:33:23;;;;;;;;;;;2.90;99.90;;;;;;4979067;28;19916;-72
2022/12/08 00:35:48;;;;;;;;;;;3.10;99.90;;;;;;4982731;28;20318;-72
2022/12/08 00:38:14;;;;;;;;;;;3.00;99.90;;;;;;4978953;28;20015;-72
2022/12/08 00:40:44;;;;;;;;;;;3.00;99.90;;;;;;4981264;28;19916;-72
2022/12/08 00:43:09;;;;;;;;;;;3.10;99.90;;;;;;4978427;28;19917;-73
2022/12/08 00:45:35;;;;;;;;;;;3.10;99.90;;;;;;4975906;28;19927;-73
2022/12/08 00:48:00;;;;;;;;;;;3.10;99.90;;;;;;4978059;28;19955;-72
2022/12/08 00:50:26;;;;;;;;;;;3.10;99.90;;;;;;4981206;28;21456;-72
2022/12/08 00:52:51;;;;;;;;;;;3.10;99.90;;;;;;4979053;28;19917;-73
2022/12/08 00:55:17;;;;;;;;;;;3.10;99.90;;;;;;4981624;28;19920;-73
2022/12/08 00:57:42;;;;;;;;;;;3.10;99.90;;;;;;4976886;28;20049;-72
2022/12/08 01:00:08;;;;;;;;;;;3.10;99.90;;;;;;4977932;28;19915;-72
2022/12/08 01:02:34;;;;;;;;;;;3.20;99.90;;;;;;4980656;28;20616;-72
2022/12/08 01:04:59;;;;;;;;;;;3.20;99.90;;;;;;4981309;28;20002;-72
2022/12/08 01:07:25;;;;;;;;;;;3.20;99.90;;;;;;4978348;28;19921;-72
2022/12/08 01:09:51;;;;;;;;;;;3.20;99.90;;;;;;4980552;28;20034;-72
2022/12/08 01:12:17;;;;;;;;;;;3.20;99.90;;;;;;4984136;28;19993;-72
2022/12/08 01:14:42;;;;;;;;;;;3.10;99.90;;;;;;4980595;28;19916;-72
2022/12/08 01:17:08;;;;;;;;;;;3.10;99.90;;;;;;4980551;28;19917;-72
2022/12/08 01:19:33;;;;;;;;;;;3.10;99.90;;;;;;4979682;28;24431;-71
2022/12/08 01:21:59;;;;;;;;;;;3.00;99.90;;;;;;4980457;28;19916;-72
2022/12/08 01:24:24;;;;;;;;;;;3.10;99.90;;;;;;4981843;28;19998;-72
2022/12/08 01:26:50;;;;;;;;;;;3.00;99.90;;;;;;4976407;28;19920;-72
2022/12/08 01:29:16;;;;;;;;;;;3.10;99.90;;;;;;4997168;28;19932;-73
2022/12/08 01:31:42;;;;;;;;;;;3.10;99.90;;;;;;4998157;28;19923;-72
2022/12/08 01:34:09;;;;;;;;;;;3.10;99.90;;;;;;5002179;28;21398;-72
2022/12/08 01:36:37;;;;;;;;;;;3.10;99.90;;;;;;5000545;28;19916;-72
2022/12/08 01:39:05;;;;;;;;;;;3.10;99.90;;;;;;4999573;28;19915;-72
2022/12/08 01:41:34;;;;;;;;;;;3.00;99.90;;;;;;4997638;28;20686;-72
2022/12/08 01:44:03;;;;;;;;;;;3.20;99.90;;;;;;4981938;28;19936;-72
2022/12/08 01:46:30;;;;;;;;;;;3.00;99.90;;;;;;5002858;28;19922;-72
2022/12/08 01:49:04;;;;;;;;;;;3.00;99.90;;;;;;5001067;28;20780;-72
2022/12/08 01:51:32;;;;;;;;;;;3.00;99.90;;;;;;5001374;28;20839;-72
2022/12/08 01:53:57;;;;;;;;;;;2.90;99.90;;;;;;5000101;28;19922;-72
2022/12/08 01:56:56;;;;;;;;;;;2.90;99.90;;;;;;4983739;28;20209;-72
2022/12/08 01:59:22;;;;;;;;;;;2.90;99.90;;;;;;4910470;28;19955;-72
2022/12/08 02:01:48;;;;;;;;;;;2.90;99.90;;;;;;4912759;28;20003;-72
2022/12/08 02:04:13;;;;;;;;;;;2.90;99.90;;;;;;4913247;28;20378;-72
2022/12/08 02:06:40;;;;;;;;;;;2.90;99.90;;;;;;4928338;28;19916;-72
2022/12/08 02:09:07;;;;;;;;;;;3.00;99.90;;;;;;4926528;28;19956;-72
2022/12/08 02:11:32;;;;;;;;;;;3.00;99.90;;;;;;4927287;28;19917;-72
2022/12/08 02:13:59;;;;;;;;;;;3.00;99.90;;;;;;4918024;28;19928;-71
2022/12/08 02:16:31;;;;;;;;;;;3.00;99.90;;;;;;4916253;28;19940;-72
2022/12/08 02:19:00;;;;;;;;;;;3.00;99.90;;;;;;4914604;28;19917;-71
2022/12/08 02:21:32;;;;;;;;;;;3.00;99.90;;;;;;4930637;28;19923;-73
2022/12/08 02:24:13;;;;;;;;;;;3.00;99.90;;;;;;4931270;28;20390;-72
2022/12/08 02:27:01;;;;;;;;;;;3.00;99.90;;;;;;4930336;28;24204;-72
2022/12/08 02:29:27;;;;;;;;;;;3.10;99.90;;;;;;4895707;28;19929;-72
2022/12/08 02:32:11;;;;;;;;;;;3.10;99.90;;;;;;4929148;28;20591;-72
2022/12/08 02:34:40;;;;;;;;;;;3.10;99.90;;;;;;4938891;27;19959;-72
2022/12/08 02:37:11;;;;;;;;;;;3.10;99.90;;;;;;5003486;27;20853;-71
2022/12/08 02:40:03;;;;;;;;;;;3.20;99.90;;;;;;4983068;27;19922;-72
2022/12/08 02:42:36;;;;;;;;;;;3.30;99.90;;;;;;4958967;27;19915;-71
2022/12/08 02:45:05;;;;;;;;;;;3.30;99.90;;;;;;5002543;27;21316;-72
2022/12/08 02:47:32;;;;;;;;;;;3.40;99.90;;;;;;4983712;27;20054;-72
2022/12/08 02:49:58;;;;;;;;;;;3.40;99.90;;;;;;5005095;27;20329;-72
2022/12/08 02:52:23;;;;;;;;;;;3.30;99.90;;;;;;4986053;27;19916;-72
2022/12/08 02:54:51;;;;;;;;;;;3.30;99.90;;;;;;5002824;27;19923;-72
2022/12/08 02:57:49;;;;;;;;;;;3.30;99.90;;;;;;5002649;27;19915;-72
2022/12/08 03:00:16;;;;;;;;;;;3.30;99.90;;;;;;4953058;27;19916;-72
2022/12/08 03:03:00;;;;;;;;;;;3.10;99.90;;;;;;5005202;27;20299;-72
2022/12/08 03:05:32;;;;;;;;;;;3.20;99.90;;;;;;5005180;27;21142;-72
2022/12/08 03:08:00;;;;;;;;;;;3.10;99.90;;;;;;5004724;27;20331;-72
2022/12/08 03:10:28;;;;;;;;;;;3.10;99.90;;;;;;5004498;27;19919;-72
2022/12/08 03:13:00;;;;;;;;;;;3.20;99.90;;;;;;5004917;27;20351;-72
2022/12/08 03:15:26;;;;;;;;;;;3.10;99.90;;;;;;5003614;27;19916;-72
2022/12/08 03:17:53;;;;;;;;;;;3.20;99.90;;;;;;5001844;27;19922;-72
2022/12/08 03:20:21;;;;;;;;;;;3.10;99.90;;;;;;5002080;27;19916;-72
2022/12/08 03:22:47;;;;;;;;;;;3.10;99.90;;;;;;5002616;27;19930;-72
2022/12/08 03:25:14;;;;;;;;;;;3.10;99.90;;;;;;5002163;27;20970;-72
2022/12/08 03:27:40;;;;;;;;;;;3.20;99.90;;;;;;5001032;27;20085;-73
2022/12/08 03:30:05;;;;;;;;;;;3.20;99.90;;;;;;5001590;27;19964;-73
2022/12/08 03:32:46;;;;;;;;;;;3.30;99.90;;;;;;4985353;27;19946;-73
2022/12/08 03:35:14;;;;;;;;;;;3.40;99.90;;;;;;4980395;27;19972;-72
2022/12/08 03:37:40;;;;;;;;;;;3.40;99.90;;;;;;5005324;27;19970;-72
2022/12/08 03:40:08;;;;;;;;;;;3.40;99.90;;;;;;4999562;27;20592;-72
2022/12/08 03:42:33;;;;;;;;;;;3.40;99.90;;;;;;4985729;27;24629;-72
2022/12/08 03:44:59;;;;;;;;;;;3.40;99.90;;;;;;5002639;27;19923;-72
2022/12/08 03:47:24;;;;;;;;;;;3.30;99.90;;;;;;5001166;27;19915;-72
2022/12/08 03:49:50;;;;;;;;;;;3.30;99.90;;;;;;5001953;27;19916;-72
2022/12/08 03:52:15;;;;;;;;;;;3.30;99.90;;;;;;5003560;27;19923;-72
2022/12/08 03:54:41;;;;;;;;;;;3.20;99.90;;;;;;4982728;27;19922;-72
2022/12/08 03:57:07;;;;;;;;;;;3.20;99.90;;;;;;5000574;27;20018;-72
2022/12/08 03:59:32;;;;;;;;;;;3.20;99.90;;;;;;5000732;27;24479;-72
2022/12/08 04:01:58;;;;;;;;;;;3.20;99.90;;;;;;4982514;27;19916;-72
2022/12/08 04:04:24;;;;;;;;;;;3.20;99.90;;;;;;5001027;27;19920;-72
2022/12/08 04:06:50;;;;;;;;;;;3.20;99.90;;;;;;5001111;27;19940;-72
2022/12/08 04:09:15;;;;;;;;;;;3.20;99.90;;;;;;5002024;27;20403;-72
2022/12/08 04:11:41;;;;;;;;;;;3.20;99.90;;;;;;4983667;27;19952;-73
2022/12/08 04:14:06;;;;;;;;;;;3.20;99.90;;;;;;5002106;27;20913;-72
2022/12/08 04:16:32;;;;;;;;;;;3.20;99.90;;;;;;4980019;27;19920;-72
2022/12/08 04:18:58;;;;;;;;;;;3.20;99.90;;;;;;4999534;27;19916;-72
2022/12/08 04:21:23;;;;;;;;;;;3.20;99.90;;;;;;4974985;27;20280;-72
2022/12/08 04:23:49;;;;;;;;;;;3.20;99.90;;;;;;5001798;27;20336;-73
2022/12/08 04:26:15;;;;;;;;;;;3.30;99.90;;;;;;4981335;27;20821;-72
2022/12/08 04:28:40;;;;;;;;;;;3.30;99.90;;;;;;5003130;27;19943;-73
2022/12/08 04:31:06;;;;;;;;;;;3.40;99.90;;;;;;5006128;27;20338;-73
2022/12/08 04:33:32;;;;;;;;;;;3.40;99.90;;;;;;5000407;27;19915;-73
2022/12/08 04:35:57;;;;;;;;;;;3.40;99.90;;;;;;4999848;27;20117;-72
2022/12/08 04:38:23;;;;;;;;;;;3.50;99.90;;;;;;5001044;27;20855;-73
2022/12/08 04:40:49;;;;;;;;;;;3.50;99.90;;;;;;4982914;27;20786;-72
2022/12/08 04:43:14;;;;;;;;;;;3.40;99.90;;;;;;4996825;27;19962;-72
2022/12/08 04:45:41;;;;;;;;;;;3.30;99.90;;;;;;4979423;27;20599;-72
2022/12/08 04:48:07;;;;;;;;;;;3.30;99.90;;;;;;4996915;27;19923;-72
2022/12/08 04:50:32;;;;;;;;;;;3.30;99.90;;;;;;4996891;27;20015;-73
2022/12/08 04:52:58;;;;;;;;;;;3.40;99.90;;;;;;5000795;27;19916;-72
2022/12/08 04:55:23;;;;;;;;;;;3.40;99.90;;;;;;4998370;27;19939;-72
2022/12/08 04:57:49;;;;;;;;;;;3.40;99.90;;;;;;4998706;27;19915;-73
2022/12/08 05:00:15;;;;;;;;;;;3.30;99.90;;;;;;4996341;27;19915;-73
2022/12/08 05:02:40;;;;;;;;;;;3.20;99.90;;;;;;4998106;27;19955;-72
2022/12/08 05:05:06;;;;;;;;;;;3.20;99.90;;;;;;4999019;27;20044;-73
2022/12/08 05:07:32;;;;;;;;;;;3.20;99.90;;;;;;5000298;27;24115;-73
2022/12/08 05:09:57;;;;;;;;;;;3.20;99.90;;;;;;4999263;27;19997;-72
2022/12/08 05:12:23;;;;;;;;;;;3.20;99.90;;;;;;5001145;27;20599;-72
2022/12/08 05:14:49;;;;;;;;;;;3.20;99.90;;;;;;4979674;27;19919;-73
2022/12/08 05:17:15;;;;;;;;;;;3.20;99.90;;;;;;4981137;27;19922;-73
2022/12/08 05:19:41;;;;;;;;;;;3.20;99.90;;;;;;4998034;27;19919;-72
2022/12/08 05:22:06;;;;;;;;;;;3.20;99.90;;;;;;4980548;28;20019;-72
2022/12/08 05:24:32;;;;;;;;;;;3.20;99.90;;;;;;4997746;28;19916;-73
2022/12/08 05:26:57;;;;;;;;;;;3.20;99.90;;;;;;4998947;28;19916;-73
2022/12/08 05:29:23;;;;;;;;;;;3.10;99.90;;;;;;5001813;28;19927;-73
2022/12/08 05:31:49;;;;;;;;;;;3.10;99.90;;;;;;5000991;28;20246;-73
2022/12/08 05:34:14;;;;;;;;;;;3.10;99.90;;;;;;5000408;28;21733;-72
2022/12/08 05:36:40;;;;;;;;;;;3.10;99.90;;;;;;4998153;28;20030;-72
2022/12/08 05:39:06;;;;;;;;;;;3.10;99.90;;;;;;5000129;28;19916;-72
2022/12/08 05:41:31;;;;;;;;;;;3.00;99.90;;;;;;4978160;28;20378;-72
2022/12/08 05:43:57;;;;;;;;;;;3.10;99.90;;;;;;4996781;28;19931;-73
2022/12/08 05:46:22;;;;;;;;;;;3.00;99.90;;;;;;4978373;28;19915;-72
2022/12/08 05:48:48;;;;;;;;;;;3.00;99.90;;;;;;4997801;28;19928;-72
2022/12/08 05:51:18;;;;;;;;;;;3.00;99.90;;;;;;5003593;27;19916;-72
2022/12/08 05:53:44;;;;;;;;;;;2.90;99.90;;;;;;5002209;27;19965;-72
2022/12/08 05:56:10;;;;;;;;;;;2.90;99.90;;;;;;5003840;27;20030;-72
2022/12/08 05:58:35;;;;;;;;;;;2.90;99.90;;;;;;5006762;27;20347;-73
2022/12/08 06:01:02;;;;;;;;;;;2.90;99.90;;;;;;5004583;27;20869;-73
2022/12/08 06:03:27;;;;;;;;;;;2.90;99.90;;;;;;5005685;27;19915;-73
2022/12/08 06:05:53;;;;;;;;;;;2.90;99.90;;;;;;5001399;27;19965;-74
2022/12/08 06:08:18;;;;;;;;;;;2.90;99.90;;;;;;5003649;27;20845;-74
2022/12/08 06:10:44;;;;;;;;;;;2.80;99.90;;;;;;5003263;27;19962;-73
2022/12/08 06:13:10;;;;;;;;;;;2.80;99.90;;;;;;5003212;27;19921;-74
2022/12/08 06:15:36;;;;;;;;;;;2.90;99.90;;;;;;4967590;27;20552;-74
2022/12/08 06:18:02;;;;;;;;;;;2.80;99.90;;;;;;5003804;27;20735;-74
2022/12/08 06:20:27;;;;;;;;;;;2.80;99.90;;;;;;5004792;27;21260;-74
2022/12/08 06:22:53;;;;;;;;;;;2.80;99.90;;;;;;5005076;27;19915;-73
2022/12/08 06:25:19;;;;;;;;;;;2.80;99.90;;;;;;5005279;27;19915;-74
2022/12/08 06:27:44;;;;;;;;;;;2.80;99.90;;;;;;5004671;27;19957;-74
2022/12/08 06:30:10;;;;;;;;;;;2.70;99.90;;;;;;5001668;27;19998;-73
2022/12/08 06:32:35;;;;;;;;;;;2.70;99.90;;;;;;4984591;27;20732;-73
2022/12/08 06:35:01;;;;;;;;;;;2.70;99.90;;;;;;5004217;27;20091;-74
2022/12/08 06:37:27;;;;;;;;;;;2.70;99.90;;;;;;5002255;27;19923;-74
2022/12/08 06:39:53;;;;;;;;;;;2.70;99.90;;;;;;5004001;27;20348;-73
2022/12/08 06:45:03;;;;;;;;;;;2.50;99.90;;;;;;5005461;27;23777;-75
2022/12/08 06:47:28;;;;;;;;;;;2.60;99.90;;;;;;4984005;27;19916;-73
2022/12/08 06:49:54;;;;;;;;;;;2.60;99.90;;;;;;5004848;27;19927;-74
2022/12/08 06:52:19;;;;;;;;;;;2.50;99.90;;;;;;4983499;27;20677;-73
2022/12/08 06:54:45;;;;;;;;;;;2.50;99.90;;;;;;4984015;27;19920;-74
2022/12/08 06:57:10;;;;;;;;;;;2.50;99.90;;;;;;5004541;27;20627;-73
2022/12/08 06:59:37;;;;;;;;;;;2.50;99.90;;;;;;5003525;27;19922;-73
2022/12/08 07:02:03;;;;;;;;;;;2.50;99.90;;;;;;5002424;27;19916;-73
2022/12/08 07:04:28;;;;;;;;;;;2.50;99.90;;;;;;5005025;27;20610;-73
2022/12/08 07:06:54;;;;;;;;;;;2.50;99.90;;;;;;5003844;27;22095;-73
2022/12/08 07:09:19;;;;;;;;;;;2.40;99.90;;;;;;4983732;27;20322;-73
2022/12/08 07:11:45;;;;;;;;;;;2.40;99.90;;;;;;5003431;27;19919;-73
2022/12/08 07:14:11;;;;;;;;;;;2.40;99.90;;;;;;5001754;27;21421;-72
2022/12/08 07:16:38;;;;;;;;;;;2.40;99.90;;;;;;5001732;27;19942;-73
2022/12/08 07:19:04;;;;;;;;;;;2.40;99.90;;;;;;5005330;27;19927;-73
2022/12/08 07:21:29;;;;;;;;;;;2.40;99.90;;;;;;5005337;27;19916;-73
2022/12/08 07:23:55;;;;;;;;;;;2.30;99.90;;;;;;5004647;27;19922;-74
2022/12/08 07:26:21;;;;;;;;;;;2.30;99.90;;;;;;5004500;27;19916;-73
2022/12/08 07:28:46;;;;;;;;;;;2.30;99.90;;;;;;5005231;27;23977;-73
2022/12/08 07:31:17;;;;;;;;;;;2.30;99.90;;;;;;5001860;27;19923;-72
2022/12/08 07:33:43;;;;;;;;;;;2.30;99.90;;;;;;5003035;27;19923;-73
2022/12/08 07:36:08;;;;;;;;;;;2.40;99.90;;;;;;5002833;27;19973;-72
2022/12/08 07:38:34;;;;;;;;;;;2.40;99.90;;;;;;4986323;27;21275;-73
2022/12/08 07:41:00;;;;;;;;;;;2.40;99.90;;;;;;5005307;27;19932;-72
2022/12/08 07:43:25;;;;;;;;;;;2.40;99.90;;;;;;5001712;27;20045;-73
2022/12/08 07:45:51;;;;;;;;;;;2.40;99.90;;;;;;5003542;27;20798;-73
2022/12/08 07:48:17;;;;;;;;;;;2.40;99.90;;;;;;5001860;27;20405;-73
2022/12/08 07:50:42;;;;;;;;;;;2.50;99.90;;;;;;5004260;27;20344;-73
2022/12/08 07:53:08;;;;;;;;;;;2.50;99.90;;;;;;5005028;27;19931;-72
2022/12/08 07:55:37;;;;;;;;;;;2.50;99.90;;;;;;5002436;27;20925;-73
2022/12/08 07:58:03;;;;;;;;;;;2.50;99.90;;;;;;5001170;27;19926;-73
2022/12/08 08:00:29;;;;;;;;;;;2.50;99.90;;;;;;5002454;27;19915;-72
2022/12/08 08:02:54;;;;;;;;;;;2.50;99.90;;;;;;5006673;27;20050;-72
2022/12/08 08:05:21;;;;;;;;;;;2.50;99.90;;;;;;5003319;27;21112;-75
2022/12/08 08:07:47;;;;;;;;;;;2.50;99.90;;;;;;5004534;27;19922;-73
2022/12/08 08:10:12;;;;;;;;;;;2.50;99.90;;;;;;5002796;27;19923;-73
2022/12/08 08:12:38;;;;;;;;;;;2.60;99.90;;;;;;5002654;27;23837;-75
2022/12/08 08:15:06;;;;;;;;;;;2.60;99.90;;;;;;4984441;27;19950;-74
2022/12/08 08:17:32;;;;;;;;;;;2.60;99.90;;;;;;4982398;27;20916;-73
2022/12/08 08:19:58;;;;;;;;;;;2.60;99.90;;;;;;5001493;27;19919;-73
2022/12/08 08:22:23;;;;;;;;;;;2.70;99.90;;;;;;5003766;27;19970;-74
2022/12/08 08:24:49;;;;;;;;;;;2.70;99.90;;;;;;5005272;27;19930;-73
2022/12/08 08:27:15;;;;;;;;;;;2.60;99.90;;;;;;5002041;27;20350;-74
2022/12/08 08:29:40;;;;;;;;;;;2.70;99.90;;;;;;5002168;27;19928;-73
2022/12/08 08:32:06;;;;;;;;;;;2.70;99.90;;;;;;5002172;27;19955;-73
2022/12/08 08:34:31;;;;;;;;;;;2.70;99.90;;;;;;4981915;28;19916;-74
2022/12/08 08:36:57;;;;;;;;;;;2.80;99.90;;;;;;5004682;27;19916;-74
2022/12/08 08:39:22;;;;;;;;;;;2.80;99.90;;;;;;5001090;27;24453;-73
2022/12/08 08:41:48;;;;;;;;;;;2.90;99.90;;;;;;5003522;27;24502;-75
2022/12/08 08:44:13;;;;;;;;;;;2.90;99.90;;;;;;5002844;27;21411;-73
2022/12/08 08:46:39;;;;;;;;;;;2.90;99.90;;;;;;5003847;27;19936;-74
2022/12/08 08:49:05;;;;;;;;;;;2.90;99.90;;;;;;4982283;27;19963;-73
2022/12/08 08:51:31;;;;;;;;;;;2.90;99.90;;;;;;5003346;27;19916;-74
2022/12/08 08:53:56;;;;;;;;;;;2.90;99.90;;;;;;5002063;27;19954;-73
2022/12/08 08:56:23;;;;;;;;;;;2.90;99.90;;;;;;4980167;28;20002;-73
2022/12/08 08:58:49;;;;;;;;;;;2.80;99.90;;;;;;5002445;27;19969;-73
2022/12/08 09:01:19;;;;;;;;;;;3.00;99.90;;;;;;4999000;27;19916;-75
2022/12/08 09:03:45;;;;;;;;;;;2.90;99.90;;;;;;5001150;27;20006;-74
2022/12/08 09:06:11;;;;;;;;;;;2.90;99.90;;;;;;5003540;27;20624;-74
2022/12/08 09:08:36;;;;;;;;;;;2.90;99.90;;;;;;5002021;27;19924;-73
2022/12/08 09:11:02;;;;;;;;;;;2.90;99.90;;;;;;5000608;27;19916;-73
2022/12/08 09:13:27;;;;;;;;;;;2.90;99.90;;;;;;5004562;27;19916;-73
2022/12/08 09:15:53;;;;;;;;;;;2.90;99.90;;;;;;5001884;27;20314;-74
2022/12/08 09:18:18;;;;;;;;;;;3.00;99.90;;;;;;5001891;27;20039;-73
2022/12/08 09:20:44;;;;;;;;;;;3.00;99.90;;;;;;4980821;28;19926;-73
2022/12/08 09:23:09;;;;;;;;;;;3.00;99.90;;;;;;4983461;28;20670;-74
2022/12/08 09:25:35;;;;;;;;;;;3.10;99.90;;;;;;5001327;27;19989;-73
2022/12/08 09:28:01;;;;;;;;;;;3.10;99.90;;;;;;4983182;28;20132;-73
2022/12/08 09:30:26;;;;;;;;;;;3.10;99.90;;;;;;5000284;28;19941;-73
2022/12/08 09:32:52;;;;;;;;;;;3.20;99.90;;;;;;5002681;28;19916;-75
2022/12/08 09:35:17;;;;;;;;;;;3.20;99.90;;;;;;5000594;28;21760;-74
2022/12/08 09:37:43;;;;;;;;;;;3.10;99.90;;;;;;4998543;28;19966;-73
2022/12/08 09:40:10;;;;;;;;;;;3.10;99.90;;;;;;5002335;28;20693;-74
2022/12/08 09:42:35;;;;;;;;;;;3.10;99.90;;;;;;4981439;28;20053;-73
2022/12/08 09:45:03;;;;;;;;;;;3.00;99.90;;;;;;5000593;28;19923;-73
2022/12/08 09:47:32;;;;;;;;;;;3.00;99.90;;;;;;5001719;28;24196;-73
2022/12/08 09:49:57;;;;;;;;;;;3.00;99.90;;;;;;4977464;28;19942;-73
2022/12/08 09:52:30;;;;;;;;;;;3.10;99.90;;;;;;4994675;28;21355;-73
2022/12/08 09:54:57;;;;;;;;;;;3.10;99.90;;;;;;4995386;28;19915;-74
2022/12/08 09:57:23;;;;;;;;;;;3.10;99.90;;;;;;4997144;28;19916;-72
2022/12/08 09:59:54;;;;;;;;;;;3.20;99.90;;;;;;4975134;28;20056;-73
2022/12/08 10:02:24;;;;;;;;;;;3.20;99.90;;;;;;4994672;28;19922;-74
2022/12/08 10:04:50;;;;;;;;;;;3.20;99.90;;;;;;4975364;28;19938;-73
2022/12/08 10:07:20;;;;;;;;;;;3.20;99.90;;;;;;4995603;28;20373;-73
2022/12/08 10:09:46;;;;;;;;;;;3.20;99.90;;;;;;4979354;28;21591;-72
2022/12/08 10:12:25;;;;;;;;;;;3.20;99.90;;;;;;4996868;28;19954;-74
2022/12/08 10:15:22;;;;;;;;;;;3.20;99.90;;;;;;4996584;28;19916;-73
2022/12/08 10:17:49;;;;;;;;;;;3.20;99.90;;;;;;4953367;28;19998;-74
2022/12/08 10:20:17;;;;;;;;;;;3.30;99.90;;;;;;4977757;28;19955;-74
2022/12/08 10:22:43;;;;;;;;;;;3.20;99.90;;;;;;4996897;28;19915;-75
2022/12/08 10:25:14;;;;;;;;;;;3.10;99.90;;;;;;4996055;28;20009;-74
2022/12/08 10:27:40;;;;;;;;;;;3.10;99.90;;;;;;4976439;28;20089;-73
2022/12/08 10:30:12;;;;;;;;;;;3.00;99.90;;;;;;4977463;28;19927;-74
2022/12/08 10:32:38;;;;;;;;;;;3.00;99.90;;;;;;4977712;28;20398;-74
2022/12/08 10:35:08;;;;;;;;;;;2.90;99.90;;;;;;4977839;28;19916;-73
2022/12/08 10:37:35;;;;;;;;;;;2.90;99.90;;;;;;4999711;27;19916;-75
2022/12/08 10:40:02;;;;;;;;;;;2.90;99.90;;;;;;4999190;27;19916;-75
2022/12/08 10:42:33;;;;;;;;;;;2.90;99.90;;;;;;4996317;27;21206;-75
2022/12/08 10:45:01;;;;;;;;;;;2.90;99.90;;;;;;4999086;27;20252;-74
2022/12/08 10:47:27;;;;;;;;;;;2.90;99.90;;;;;;4980298;27;19958;-74
2022/12/08 10:50:05;;;;;;;;;;;2.90;99.90;;;;;;4999496;27;20792;-73
2022/12/08 10:52:31;;;;;;;;;;;2.90;99.90;;;;;;4997409;27;19922;-73
2022/12/08 10:54:59;;;;;;;;;;;3.00;99.90;;;;;;5002844;27;20574;-73
2022/12/08 10:57:24;;;;;;;;;;;3.10;99.90;;;;;;4985688;27;19915;-73
2022/12/08 10:59:53;;;;;;;;;;;3.10;99.90;;;;;;4982596;27;20061;-73
2022/12/08 11:02:19;;;;;;;;;;;3.20;99.90;;;;;;5002549;27;19968;-74
2022/12/08 11:04:45;;;;;;;;;;;3.30;99.90;;;;;;4982233;27;19923;-73
2022/12/08 11:07:11;;;;;;;;;;;3.20;99.90;;;;;;4974979;27;20535;-73
2022/12/08 11:09:48;;;;;;;;;;;3.20;99.90;;;;;;4996035;27;20142;-74
2022/12/08 11:12:20;;;;;;;;;;;3.20;99.90;;;;;;4981300;27;19915;-74
2022/12/08 11:14:59;;;;;;;;;;;3.20;99.90;;;;;;4997372;27;19923;-73
2022/12/08 11:17:27;;;;;;;;;;;3.20;99.90;;;;;;4981680;27;19916;-74
2022/12/08 11:20:00;;;;;;;;;;;3.20;99.90;;;;;;4999014;27;19941;-74
2022/12/08 11:22:36;;;;;;;;;;;3.30;99.90;;;;;;5058403;27;19912;-73
2022/12/08 11:25:21;;;;;;;;;;;3.30;99.90;;;;;;4976836;27;19924;-73
2022/12/08 11:27:48;;;;;;;;;;;3.30;99.90;;;;;;4995748;27;19923;-74
2022/12/08 11:30:23;;;;;;;;;;;3.40;99.90;;;;;;4995922;27;19949;-75
2022/12/08 11:32:52;;;;;;;;;;;3.50;99.90;;;;;;4975550;27;20303;-74
2022/12/08 11:35:25;;;;;;;;;;;3.50;99.90;;;;;;4977385;27;21501;-74
2022/12/08 11:37:51;;;;;;;;;;;3.60;99.90;;;;;;4996581;27;19916;-74
2022/12/08 11:40:17;;;;;;;;;;;3.60;99.90;;;;;;4998620;27;20601;-74
2022/12/08 11:42:50;;;;;;;;;;;3.70;99.90;;;;;;4978393;27;19926;-75
2022/12/08 11:45:20;;;;;;;;;;;3.70;99.90;;;;;;4997432;27;20475;-75
2022/12/08 11:47:48;;;;;;;;;;;3.70;99.90;;;;;;4996836;27;21019;-73
2022/12/08 11:50:18;;;;;;;;;;;3.70;99.90;;;;;;4995652;27;20003;-73
2022/12/08 11:52:48;;;;;;;;;;;3.70;99.90;;;;;;5001198;27;20326;-73
2022/12/08 11:55:14;;;;;;;;;;;3.70;99.90;;;;;;5000175;27;20014;-73
2022/12/08 11:57:39;;;;;;;;;;;3.60;99.90;;;;;;4998206;27;20090;-75
2022/12/08 12:00:06;;;;;;;;;;;3.70;99.90;;;;;;4996131;27;19916;-73
2022/12/08 12:02:33;;;;;;;;;;;3.70;99.90;;;;;;5002583;27;19992;-74
2022/12/08 12:05:03;;;;;;;;;;;3.80;99.90;;;;;;4999110;27;19989;-75
2022/12/08 12:07:38;;;;;;;;;;;3.80;99.90;;;;;;4999115;27;20499;-73
2022/12/08 12:10:04;;;;;;;;;;;3.90;99.90;;;;;;4998979;27;19961;-73
2022/12/08 12:12:48;;;;;;;;;;;3.90;99.90;;;;;;5005024;27;20484;-75
2022/12/08 12:15:14;;;;;;;;;;;3.90;99.90;;;;;;5001196;27;21138;-75
2022/12/08 12:17:42;;;;;;;;;;;4.00;99.90;;;;;;5001538;27;19987;-73
2022/12/08 12:20:15;;;;;;;;;;;4.20;99.90;;;;;;5001148;27;20020;-74
2022/12/08 12:22:42;;;;;;;;;;;4.30;99.90;;;;;;4995939;27;20326;-75
2022/12/08 12:25:15;;;;;;;;;;;4.40;99.90;;;;;;4994978;27;19915;-74
2022/12/08 12:27:42;;;;;;;;;;;4.50;99.90;;;;;;4994875;27;20313;-73
2022/12/08 12:30:17;;;;;;;;;;;4.50;99.90;;;;;;4996374;27;19927;-75
2022/12/08 12:32:47;;;;;;;;;;;4.60;99.90;;;;;;4994059;27;19923;-74
2022/12/08 12:35:15;;;;;;;;;;;4.60;99.90;;;;;;4994755;27;20027;-74
2022/12/08 12:37:41;;;;;;;;;;;4.70;99.90;;;;;;4996109;27;19923;-73
2022/12/08 12:40:10;;;;;;;;;;;4.80;99.90;;;;;;4995331;27;24334;-74
2022/12/08 12:42:47;;;;;;;;;;;4.80;99.90;;;;;;4977529;27;20011;-73
2022/12/08 12:45:16;;;;;;;;;;;4.70;99.90;;;;;;4976669;27;19926;-75
2022/12/08 12:47:47;;;;;;;;;;;4.50;99.90;;;;;;4997618;27;21249;-73
2022/12/08 12:50:14;;;;;;;;;;;4.20;99.90;;;;;;4998526;27;19931;-73
2022/12/08 12:52:40;;;;;;;;;;;4.10;99.90;;;;;;5000311;27;19977;-75
2022/12/08 12:55:08;;;;;;;;;;;4.10;99.90;;;;;;4994994;27;19916;-75
2022/12/08 12:57:35;;;;;;;;;;;4.10;99.90;;;;;;4996146;27;24253;-74
2022/12/08 13:00:01;;;;;;;;;;;4.10;99.90;;;;;;4997390;27;19923;-73
2022/12/08 13:02:29;;;;;;;;;;;4.10;99.90;;;;;;4994127;27;19916;-73
2022/12/08 13:04:57;;;;;;;;;;;4.10;99.90;;;;;;4980826;27;20335;-74
2022/12/08 13:07:24;;;;;;;;;;;4.10;99.90;;;;;;4997272;27;19959;-73
2022/12/08 13:09:55;;;;;;;;;;;4.20;99.90;;;;;;4995848;27;19930;-74
2022/12/08 13:12:22;;;;;;;;;;;4.20;99.90;;;;;;4995132;27;20451;-74
2022/12/08 13:14:49;;;;;;;;;;;4.20;99.90;;;;;;4993574;27;20844;-73
2022/12/08 13:17:35;;;;;;;;;;;4.20;99.90;;;;;;4994423;27;19922;-74
2022/12/08 13:20:03;;;;;;;;;;;4.30;99.90;;;;;;4995081;27;21157;-73
2022/12/08 13:23:04;;;;;;;;;;;4.30;99.90;;;;;;4974490;27;19923;-73
2022/12/08 13:25:39;;;;;;;;;;;4.30;99.90;;;;;;4935301;28;19917;-74
2022/12/08 13:28:18;;;;;;;;;;;4.20;99.90;;;;;;4991775;27;19930;-73
2022/12/08 13:30:45;;;;;;;;;;;4.20;99.90;;;;;;4999238;28;19924;-72
2022/12/08 13:33:21;;;;;;;;;;;4.20;99.90;;;;;;4993919;28;21223;-73
2022/12/08 13:35:50;;;;;;;;;;;4.10;99.90;;;;;;4977639;28;24763;-74
2022/12/08 13:38:18;;;;;;;;;;;4.10;99.90;;;;;;5001525;28;19923;-74
2022/12/08 13:40:44;;;;;;;;;;;4.00;99.90;;;;;;4981761;28;19969;-73
2022/12/08 13:43:43;;;;;;;;;;;4.00;99.90;;;;;;4998391;28;20438;-73
2022/12/08 13:46:09;;;;;;;;;;;4.00;99.90;;;;;;4897445;28;19918;-73
2022/12/08 13:48:35;;;;;;;;;;;4.00;99.90;;;;;;4906372;28;19984;-73
2022/12/08 13:51:09;;;;;;;;;;;4.00;99.90;;;;;;4903563;28;22086;-74
2022/12/08 13:53:39;;;;;;;;;;;3.90;99.90;;;;;;4886302;28;20339;-74
2022/12/08 13:56:05;;;;;;;;;;;3.90;99.90;;;;;;4915867;28;19924;-73
2022/12/08 13:58:35;;;;;;;;;;;3.90;99.90;;;;;;5031039;28;20088;-74
2022/12/08 14:01:04;;;;;;;;;;;3.80;99.90;;;;;;4998099;28;20334;-75
2022/12/08 14:03:30;;;;;;;;;;;3.80;99.90;;;;;;4898023;28;19974;-73
2022/12/08 14:05:55;;;;;;;;;;;3.80;99.90;;;;;;4886702;28;20005;-74
2022/12/08 14:08:21;;;;;;;;;;;3.80;99.90;;;;;;4881151;28;19928;-74
2022/12/08 14:10:51;;;;;;;;;;;3.70;99.90;;;;;;4883741;28;19928;-75
2022/12/08 14:13:16;;;;;;;;;;;3.70;99.90;;;;;;4901582;28;19936;-74
2022/12/08 14:15:42;;;;;;;;;;;3.70;99.90;;;;;;4885313;28;19926;-73
2022/12/08 14:18:21;;;;;;;;;;;3.60;99.90;;;;;;4900656;28;20411;-74
2022/12/08 14:20:58;;;;;;;;;;;3.60;99.90;;;;;;4905337;27;20399;-74
2022/12/08 14:23:23;;;;;;;;;;;3.60;99.90;;;;;;4996181;27;19941;-73
2022/12/08 14:25:49;;;;;;;;;;;3.60;99.90;;;;;;4999352;27;19935;-74
2022/12/08 14:28:15;;;;;;;;;;;3.60;99.90;;;;;;4999599;27;19915;-73
2022/12/08 14:30:41;;;;;;;;;;;3.50;99.90;;;;;;5005213;27;19916;-74
2022/12/08 14:33:11;;;;;;;;;;;3.50;99.90;;;;;;5000813;27;19948;-74
2022/12/08 14:35:37;;;;;;;;;;;3.40;99.90;;;;;;5001268;27;19975;-75
2022/12/08 14:38:04;;;;;;;;;;;3.50;99.90;;;;;;4981754;27;19919;-75
2022/12/08 14:40:37;;;;;;;;;;;3.40;99.90;;;;;;4997496;27;19916;-73
2022/12/08 14:43:08;;;;;;;;;;;3.40;99.90;;;;;;5003495;27;20515;-74